Time;durP1;ratioP1;P1;durP2;ratioP2;P2;SDS_P1;SDS_P2;PMS_P1;PMS_P2;Temp;Humidity;BMP_temperature;BMP_pressure;BME280_temperature;BME280_humidity;BME280_pressure;Samples;Min_cycle;Max_cycle;Signal;HPM_P1;HPM_P2
2022/02/10 00:15:58;;;;;;;1.63;0.90;;;23.00;31.30;;;;;;5031800;28;20807;-71
2022/02/10 00:18:51;;;;;;;1.50;1.08;;;23.00;31.20;;;;;;5032252;28;20879;-71
2022/02/10 00:21:22;;;;;;;1.40;0.83;;;23.00;31.30;;;;;;5032264;28;20437;-76
2022/02/10 00:24:32;;;;;;;1.33;0.88;;;23.00;31.30;;;;;;5030572;28;20400;-67
2022/02/10 00:34:49;;;;;;;1.30;0.95;;;22.80;31.30;;;;;;5031891;28;20405;-67
2022/02/10 00:37:19;;;;;;;1.48;1.00;;;22.80;31.30;;;;;;5031683;28;20532;-67
2022/02/10 00:42:19;;;;;;;1.23;1.00;;;22.80;31.20;;;;;;5031826;28;20398;-66
2022/02/10 00:44:45;;;;;;;1.40;0.87;;;22.80;31.30;;;;;;5031746;28;20395;-72
2022/02/10 00:47:11;;;;;;;1.45;0.93;;;22.80;31.30;;;;;;5031971;28;20426;-75
2022/02/10 00:49:37;;;;;;;1.20;0.80;;;22.80;31.20;;;;;;5031314;28;20868;-73
2022/02/10 00:52:04;;;;;;;1.35;0.90;;;22.80;31.30;;;;;;5031798;28;20482;-73
2022/02/10 00:54:30;;;;;;;1.50;0.90;;;22.70;31.30;;;;;;5030674;28;20953;-76
2022/02/10 00:56:57;;;;;;;1.80;0.80;;;22.80;31.30;;;;;;5030728;28;20407;-76
2022/02/10 00:59:30;;;;;;;1.40;0.90;;;22.80;31.10;;;;;;5031500;28;20387;-73
2022/02/10 01:12:54;;;;;;;1.30;0.93;;;22.70;31.30;;;;;;5035486;28;20460;-67
2022/02/10 01:31:47;;;;;;;1.47;0.80;;;22.60;31.20;;;;;;5037306;28;20441;-67
2022/02/10 01:34:13;;;;;;;1.58;0.90;;;22.60;31.10;;;;;;5037843;28;20395;-67
2022/02/10 01:36:38;;;;;;;1.30;0.83;;;22.60;31.10;;;;;;5037782;28;20441;-67
2022/02/10 01:39:05;;;;;;;1.20;0.80;;;22.60;31.10;;;;;;5037767;28;20406;-68
2022/02/10 01:58:25;;;;;;;1.40;0.90;;;22.50;31.00;;;;;;5037872;28;20444;-68
2022/02/10 02:03:36;;;;;;;1.27;0.90;;;22.50;31.10;;;;;;5037425;28;20389;-68
2022/02/10 02:06:09;;;;;;;1.00;0.70;;;22.50;31.10;;;;;;5037591;28;20414;-69
2022/02/10 02:08:37;;;;;;;1.05;0.75;;;22.50;31.10;;;;;;5037546;28;20391;-74
2022/02/10 02:11:04;;;;;;;1.92;1.00;;;22.40;31.00;;;;;;5036326;28;20449;-70
2022/02/10 02:13:31;;;;;;;1.27;0.80;;;22.40;31.00;;;;;;5037293;28;20867;-75
2022/02/10 02:15:57;;;;;;;1.38;0.70;;;22.50;31.00;;;;;;5037749;28;20382;-75
2022/02/10 02:18:23;;;;;;;1.40;0.88;;;22.40;30.90;;;;;;5037770;28;20391;-73
2022/02/10 02:20:52;;;;;;;1.20;0.80;;;22.40;30.90;;;;;;5037605;28;20383;-72
2022/02/10 02:23:21;;;;;;;1.40;0.95;;;22.40;30.80;;;;;;5036010;28;20863;-70
2022/02/10 02:25:52;;;;;;;1.00;0.80;;;22.50;30.80;;;;;;5033859;28;20390;-73
2022/02/10 02:28:18;;;;;;;1.30;0.80;;;22.50;30.80;;;;;;5034372;28;20747;-75
2022/02/10 03:05:57;;;;;;;1.20;0.70;;;22.30;30.60;;;;;;5033187;28;20578;-71
2022/02/10 03:08:24;;;;;;;1.10;0.80;;;22.40;30.70;;;;;;5033718;28;20878;-72
2022/02/10 03:13:22;;;;;;;1.10;0.73;;;22.40;30.70;;;;;;5033510;28;20942;-72
2022/02/10 03:18:46;;;;;;;1.00;0.80;;;22.30;30.50;;;;;;5033594;28;20489;-73
2022/02/10 04:12:57;;;;;;;3.25;0.70;;;22.20;30.50;;;;;;5032777;28;20374;-74
2022/02/10 04:26:06;;;;;;;1.83;0.90;;;22.30;32.40;;;;;;5032290;28;20391;-73
2022/02/10 04:58:01;;;;;;;2.50;0.90;;;22.60;33.70;;;;;;5028888;28;20403;-75
2022/02/10 05:06:10;;;;;;;2.50;0.90;;;22.40;32.60;;;;;;5031213;28;20869;-69
2022/02/10 05:19:31;;;;;;;6.78;1.50;;;22.50;32.70;;;;;;5031596;28;20440;-69
2022/02/10 05:34:55;;;;;;;3.08;0.88;;;22.40;32.90;;;;;;5031612;28;20382;-75
2022/02/10 05:37:24;;;;;;;2.22;0.80;;;22.30;32.80;;;;;;5031191;28;20395;-73
2022/02/10 05:39:53;;;;;;;4.77;0.70;;;22.30;32.60;;;;;;5031324;28;20415;-74
2022/02/10 05:42:42;;;;;;;3.20;0.85;;;22.40;32.40;;;;;;5031157;28;20482;-67
2022/02/10 05:50:34;;;;;;;10.43;1.50;;;22.40;32.60;;;;;;5030861;28;20391;-72
2022/02/10 05:55:44;;;;;;;3.30;0.80;;;22.40;32.80;;;;;;5031106;28;20394;-73
2022/02/10 05:58:26;;;;;;;5.10;0.90;;;22.30;33.20;;;;;;5032298;28;20387;-69
2022/02/10 06:47:50;;;;;;;2.25;0.70;;;22.20;31.20;;;;;;5034000;28;20469;-75
2022/02/10 06:52:57;;;;;;;1.83;0.70;;;22.20;31.10;;;;;;5034339;28;20394;-75
2022/02/10 07:04:11;;;;;;;3.08;0.90;;;22.30;31.60;;;;;;5033598;28;20433;-75
2022/02/10 07:12:08;;;;;;;4.60;1.05;;;22.40;31.50;;;;;;5033059;28;20394;-75
2022/02/10 07:53:06;;;;;;;1.92;0.77;;;22.70;33.10;;;;;;5032104;28;20886;-75
2022/02/10 07:55:41;;;;;;;3.13;0.75;;;22.70;32.40;;;;;;5032164;28;20426;-73
2022/02/10 08:50:05;;;;;;;1.48;0.60;;;22.70;31.10;;;;;;5031628;28;20720;-69
2022/02/10 08:53:31;;;;;;;1.48;0.60;;;22.70;31.00;;;;;;5031745;28;20497;-76
2022/02/10 09:08:42;;;;;;;1.00;0.60;;;22.80;30.30;;;;;;5031321;28;20457;-77
2022/02/10 09:14:16;;;;;;;1.20;0.57;;;22.90;30.10;;;;;;5031822;28;20386;-76
2022/02/10 10:02:48;;;;;;;1.00;0.60;;;23.40;29.80;;;;;;5035446;28;20482;-78
2022/02/10 10:05:29;;;;;;;1.08;0.60;;;23.40;29.70;;;;;;5033695;28;20914;-75
2022/02/10 10:08:15;;;;;;;0.93;0.63;;;23.40;29.70;;;;;;5034700;28;20426;-77
2022/02/10 10:49:48;;;;;;;1.13;0.70;;;23.40;29.50;;;;;;5034593;28;20521;-73
2022/02/10 10:55:27;;;;;;;2.97;0.80;;;23.40;29.50;;;;;;5029066;28;20473;-65
2022/02/10 10:57:55;;;;;;;2.58;1.08;;;23.40;29.20;;;;;;5032192;28;20449;-65
2022/02/10 11:00:55;;;;;;;4.13;1.00;;;23.40;29.20;;;;;;5032498;28;20815;-64
2022/02/10 11:36:28;;;;;;;1.70;0.70;;;23.60;29.00;;;;;;5032760;28;20394;-65
2022/02/10 11:39:33;;;;;;;2.38;0.70;;;23.60;29.00;;;;;;5031691;28;20423;-65
2022/02/10 13:32:09;;;;;;;0.80;0.40;;;24.00;29.00;;;;;;5031394;28;20382;-65
2022/02/10 13:35:18;;;;;;;0.85;0.55;;;24.00;29.00;;;;;;5030890;28;20481;-65
2022/02/10 14:13:45;;;;;;;5.32;0.80;;;27.70;29.50;;;;;;5031727;28;20378;-78
2022/02/10 14:19:11;;;;;;;5.45;0.80;;;27.80;29.10;;;;;;5019774;28;20395;-70
2022/02/10 14:21:46;;;;;;;6.20;0.70;;;27.80;29.00;;;;;;5035477;28;20399;-66
2022/02/10 14:26:56;;;;;;;1.90;0.75;;;27.70;28.90;;;;;;5034972;28;20449;-75
2022/02/10 14:29:22;;;;;;;2.40;0.60;;;27.70;29.00;;;;;;5033186;28;20406;-69
2022/02/10 14:31:52;;;;;;;2.20;0.60;;;27.70;29.00;;;;;;5034590;28;20379;-69
2022/02/10 14:34:23;;;;;;;2.45;0.70;;;27.60;28.90;;;;;;5034020;28;20482;-73
2022/02/10 14:36:51;;;;;;;2.65;0.60;;;27.70;28.80;;;;;;5034777;28;20387;-74
2022/02/10 14:39:35;;;;;;;3.08;0.60;;;27.60;28.80;;;;;;5034403;28;20411;-77
2022/02/10 15:52:43;;;;;;;2.88;0.77;;;26.40;28.40;;;;;;5032957;28;20754;-76
2022/02/10 16:17:03;;;;;;;9.90;1.80;;;25.80;29.60;;;;;;5021169;28;20809;-73
2022/02/10 16:19:30;;;;;;;8.60;1.88;;;25.80;29.90;;;;;;5031955;28;20399;-75
2022/02/10 16:22:23;;;;;;;6.28;1.85;;;25.80;30.10;;;;;;5032013;28;20878;-74
2022/02/10 16:24:49;;;;;;;6.40;1.63;;;25.80;30.30;;;;;;5032348;28;20749;-75
2022/02/10 16:27:21;;;;;;;6.15;1.83;;;25.80;30.20;;;;;;5030947;28;20489;-74
2022/02/10 16:29:47;;;;;;;5.22;1.60;;;25.70;30.00;;;;;;5031796;28;20379;-73
2022/02/10 16:32:14;;;;;;;5.18;1.52;;;25.70;29.90;;;;;;5030489;28;20408;-74
2022/02/10 16:34:41;;;;;;;6.43;1.67;;;25.60;30.00;;;;;;5030951;28;20486;-69
2022/02/10 16:37:11;;;;;;;4.38;1.38;;;25.60;30.00;;;;;;5030536;28;20423;-69
2022/02/10 16:39:38;;;;;;;3.78;1.50;;;25.60;30.00;;;;;;5031845;28;20415;-73
2022/02/10 16:42:06;;;;;;;6.15;1.65;;;25.60;30.50;;;;;;5031820;28;20744;-74
2022/02/10 16:44:33;;;;;;;6.20;1.67;;;25.50;30.30;;;;;;5030939;28;20484;-67
2022/02/10 16:47:00;;;;;;;4.70;1.60;;;25.60;30.50;;;;;;5019899;28;20419;-66
2022/02/10 16:49:27;;;;;;;6.32;1.63;;;25.50;30.50;;;;;;5029741;28;20399;-73
2022/02/10 16:51:57;;;;;;;6.20;1.70;;;25.50;30.20;;;;;;5030114;28;20387;-76
2022/02/10 16:57:05;;;;;;;6.13;1.35;;;25.40;30.20;;;;;;5030463;28;20729;-67
2022/02/10 17:02:25;;;;;;;7.05;2.03;;;25.30;30.40;;;;;;5029517;28;20398;-67
2022/02/10 17:05:19;;;;;;;5.25;1.80;;;25.20;32.40;;;;;;5028690;28;20431;-67
2022/02/10 17:26:59;;;;;;;5.95;1.40;;;24.90;32.90;;;;;;5029118;28;20929;-75
2022/02/10 17:29:36;;;;;;;9.38;2.15;;;24.90;33.50;;;;;;5030632;28;20489;-67
2022/02/10 17:32:22;;;;;;;11.77;2.72;;;25.00;33.20;;;;;;5028559;28;20404;-66
2022/02/10 17:43:28;;;;;;;11.35;2.78;;;25.00;31.90;;;;;;5030604;28;20401;-66
2022/02/10 17:53:38;;;;;;;14.93;3.97;;;24.80;30.90;;;;;;5030770;28;20390;-66
2022/02/10 17:56:08;;;;;;;13.10;3.70;;;24.90;31.00;;;;;;5037399;28;20389;-66
2022/02/10 17:58:34;;;;;;;16.02;5.07;;;24.90;30.70;;;;;;5032991;28;20407;-66
2022/02/10 18:01:00;;;;;;;16.83;4.68;;;25.00;30.90;;;;;;5016246;28;20891;-66
2022/02/10 18:03:26;;;;;;;18.75;5.40;;;24.90;31.30;;;;;;5034221;28;20418;-65
2022/02/10 18:16:13;;;;;;;34.85;11.05;;;25.00;32.60;;;;;;5034217;28;20388;-66
2022/02/10 18:18:46;;;;;;;30.45;11.55;;;25.00;32.50;;;;;;5032424;28;20400;-66
2022/02/10 18:21:32;;;;;;;26.77;10.07;;;25.00;32.90;;;;;;5033993;28;20441;-66
2022/02/10 18:29:18;;;;;;;20.52;7.53;;;25.10;36.30;;;;;;5014160;28;20397;-66
2022/02/10 19:07:51;;;;;;;10.35;3.78;;;24.90;32.90;;;;;;5029716;28;20561;-66
2022/02/10 19:10:21;;;;;;;11.13;3.50;;;24.80;33.20;;;;;;5028126;28;20383;-67
2022/02/10 19:12:54;;;;;;;8.30;3.20;;;24.80;33.40;;;;;;5028747;28;20496;-66
2022/02/10 19:15:33;;;;;;;7.93;3.00;;;24.70;33.30;;;;;;5029228;28;20414;-68
2022/02/10 19:18:09;;;;;;;7.68;3.30;;;24.80;33.00;;;;;;5031718;28;20387;-66
2022/02/10 19:20:36;;;;;;;8.32;3.35;;;24.80;33.50;;;;;;5029821;28;20407;-67
2022/02/10 19:23:04;;;;;;;8.10;3.43;;;24.80;33.10;;;;;;5030660;28;20532;-67
2022/02/10 19:25:32;;;;;;;7.47;3.30;;;24.70;31.70;;;;;;5026642;28;20485;-67
2022/02/10 19:27:57;;;;;;;6.35;3.30;;;24.70;31.90;;;;;;5030202;28;20483;-71
2022/02/10 19:30:26;;;;;;;7.63;3.28;;;24.70;32.00;;;;;;5028620;28;20430;-68
2022/02/10 19:32:57;;;;;;;7.70;3.30;;;24.70;32.40;;;;;;5029438;28;20411;-70
2022/02/10 19:35:25;;;;;;;7.90;3.03;;;24.80;32.60;;;;;;5030696;28;20863;-69
2022/02/10 19:37:58;;;;;;;6.50;2.85;;;24.70;32.30;;;;;;5031983;28;20821;-68
2022/02/10 19:40:27;;;;;;;7.15;3.20;;;24.70;32.30;;;;;;5029265;28;20469;-66
2022/02/10 19:42:54;;;;;;;6.32;2.90;;;24.70;32.30;;;;;;5030778;28;20395;-68
2022/02/10 19:45:20;;;;;;;6.50;2.90;;;24.70;32.30;;;;;;5030875;28;20482;-68
2022/02/10 19:47:47;;;;;;;7.75;2.78;;;24.70;32.30;;;;;;5030316;28;20421;-67
2022/02/10 19:50:16;;;;;;;6.00;2.80;;;25.00;32.60;;;;;;5030117;28;20697;-68
2022/02/10 19:52:47;;;;;;;7.15;3.03;;;24.70;32.20;;;;;;5029810;28;20462;-67
2022/02/10 19:55:19;;;;;;;5.60;2.80;;;24.70;33.00;;;;;;5030615;28;20891;-66
2022/02/10 19:57:46;;;;;;;5.45;2.78;;;24.70;32.60;;;;;;5028680;28;20391;-69
2022/02/10 20:00:20;;;;;;;5.15;2.80;;;24.70;32.60;;;;;;5031189;28;20486;-71
2022/02/10 20:02:47;;;;;;;5.70;2.47;;;24.70;32.60;;;;;;5028799;28;20780;-72
2022/02/10 20:05:14;;;;;;;6.22;2.80;;;24.70;32.60;;;;;;5031101;28;20384;-72
2022/02/10 20:07:42;;;;;;;5.80;3.07;;;24.70;33.00;;;;;;5029976;28;20415;-67
2022/02/10 20:10:09;;;;;;;6.05;2.42;;;24.70;32.80;;;;;;5029048;28;20466;-67
2022/02/10 20:12:38;;;;;;;6.13;2.60;;;24.70;33.00;;;;;;5031245;28;20395;-68
2022/02/10 20:15:04;;;;;;;4.78;2.33;;;24.70;32.80;;;;;;5031333;28;20418;-69
2022/02/10 20:17:30;;;;;;;4.40;2.53;;;24.60;32.70;;;;;;5031037;28;20387;-66
2022/02/10 20:19:55;;;;;;;4.75;2.60;;;24.60;32.70;;;;;;5030356;28;20406;-71
2022/02/10 20:22:21;;;;;;;5.27;2.30;;;24.60;32.70;;;;;;5031448;28;20791;-68
2022/02/10 20:24:47;;;;;;;7.00;2.30;;;24.60;32.80;;;;;;5030522;28;20399;-67
2022/02/10 20:27:12;;;;;;;5.60;2.40;;;24.70;32.80;;;;;;5034105;28;20441;-65
2022/02/10 20:29:38;;;;;;;4.78;2.60;;;24.60;33.00;;;;;;5030734;28;20389;-68
2022/02/10 20:32:05;;;;;;;5.80;2.30;;;24.60;32.10;;;;;;5032013;28;20403;-66
2022/02/10 20:34:32;;;;;;;5.40;2.60;;;24.60;32.90;;;;;;5030303;28;20398;-67
2022/02/10 20:36:59;;;;;;;5.47;2.58;;;24.60;32.00;;;;;;5030139;28;20403;-70
2022/02/10 20:39:28;;;;;;;5.82;2.40;;;24.60;31.50;;;;;;5027177;28;20433;-68
2022/02/10 20:42:02;;;;;;;5.45;2.60;;;24.60;31.10;;;;;;5030546;28;20453;-67
2022/02/10 20:44:28;;;;;;;5.90;2.40;;;24.50;31.00;;;;;;5028575;28;20387;-66
2022/02/10 20:46:54;;;;;;;5.77;2.70;;;24.50;30.80;;;;;;5031101;28;20410;-67
2022/02/10 20:49:26;;;;;;;5.05;2.40;;;24.50;30.70;;;;;;5029692;28;20403;-68
2022/02/10 20:51:54;;;;;;;4.47;2.50;;;24.50;30.80;;;;;;5030207;28;20430;-67
2022/02/10 20:54:21;;;;;;;6.60;2.00;;;24.50;31.00;;;;;;5030226;28;20419;-73
2022/02/10 20:56:46;;;;;;;6.75;2.42;;;24.50;31.20;;;;;;5028975;28;20414;-70
2022/02/10 21:01:56;;;;;;;6.60;2.50;;;24.40;30.80;;;;;;5028282;28;20847;-67
2022/02/10 21:04:22;;;;;;;6.30;2.20;;;24.40;31.10;;;;;;5029285;28;20423;-67
2022/02/10 21:06:59;;;;;;;6.97;2.58;;;24.30;31.20;;;;;;5029243;28;20948;-67
2022/02/10 21:09:47;;;;;;;9.35;2.42;;;24.30;31.70;;;;;;5047183;28;20433;-72
2022/02/10 21:12:15;;;;;;;7.88;2.45;;;24.30;31.60;;;;;;5041557;28;20391;-73
2022/02/10 21:14:43;;;;;;;6.57;2.22;;;24.30;31.70;;;;;;5031342;28;20409;-67
2022/02/10 21:17:12;;;;;;;7.47;2.38;;;24.30;31.90;;;;;;5047664;28;20412;-69
2022/02/10 21:19:41;;;;;;;7.55;1.98;;;24.30;31.80;;;;;;5047006;28;20900;-72
2022/02/10 21:22:16;;;;;;;8.23;2.33;;;24.30;31.90;;;;;;5047828;28;20393;-66
2022/02/10 21:25:03;;;;;;;7.93;2.40;;;24.30;32.00;;;;;;5047616;28;20434;-67
2022/02/10 21:27:40;;;;;;;6.10;2.30;;;24.30;32.60;;;;;;5045736;28;20428;-74
2022/02/10 21:30:11;;;;;;;5.05;1.85;;;24.30;32.10;;;;;;5048207;28;20454;-72
2022/02/10 21:32:56;;;;;;;5.68;2.00;;;24.30;32.00;;;;;;5034250;28;20422;-73
2022/02/10 21:35:51;;;;;;;4.50;1.83;;;24.30;32.30;;;;;;5037431;28;20392;-67
2022/02/10 21:38:22;;;;;;;4.77;1.90;;;24.30;32.40;;;;;;5050767;28;20413;-72
2022/02/10 21:41:18;;;;;;;4.93;1.90;;;24.20;32.30;;;;;;5032065;28;20415;-73
2022/02/10 22:19:01;;;;;;;3.42;1.60;;;24.20;31.10;;;;;;5037360;28;20382;-69
2022/02/10 22:21:38;;;;;;;3.13;1.67;;;24.20;30.60;;;;;;5035162;28;20387;-75
2022/02/10 22:24:11;;;;;;;4.15;1.80;;;24.10;30.40;;;;;;5034055;28;20387;-74
2022/02/10 22:26:40;;;;;;;4.90;1.88;;;24.10;30.50;;;;;;5033053;28;20398;-73
2022/02/10 22:29:17;;;;;;;3.92;2.20;;;24.10;30.30;;;;;;5034683;28;20399;-74
2022/02/10 22:34:39;;;;;;;4.10;1.80;;;24.00;30.50;;;;;;5034397;28;20395;-76
2022/02/10 22:37:11;;;;;;;2.97;1.73;;;24.00;30.60;;;;;;5033225;28;20426;-69
2022/02/10 22:39:45;;;;;;;2.78;1.67;;;23.90;30.50;;;;;;5033559;28;20504;-68
2022/02/10 22:42:31;;;;;;;3.80;1.60;;;23.90;30.70;;;;;;5030634;28;20438;-68
2022/02/10 22:44:58;;;;;;;3.08;1.77;;;24.00;30.80;;;;;;5014010;28;20389;-67
2022/02/10 22:47:24;;;;;;;3.40;1.65;;;24.00;30.80;;;;;;5017019;28;20553;-67
2022/02/10 22:49:51;;;;;;;3.03;1.50;;;24.00;30.90;;;;;;5032055;28;20405;-67
2022/02/10 22:52:17;;;;;;;3.38;1.83;;;24.00;30.90;;;;;;5033698;28;20419;-68
2022/02/10 22:54:43;;;;;;;2.35;1.50;;;23.90;30.90;;;;;;5033580;28;20392;-67
2022/02/10 22:57:10;;;;;;;2.60;1.58;;;23.90;30.80;;;;;;5033751;28;20954;-67
2022/02/10 22:59:37;;;;;;;2.58;1.50;;;23.90;30.80;;;;;;5033914;28;20409;-74
2022/02/10 23:02:03;;;;;;;2.88;1.63;;;23.90;30.60;;;;;;5031805;28;20956;-68
2022/02/10 23:04:34;;;;;;;2.50;1.55;;;23.90;30.50;;;;;;5033108;28;20395;-68
2022/02/10 23:07:07;;;;;;;3.10;1.77;;;23.80;30.50;;;;;;5033660;28;20411;-71
2022/02/10 23:12:12;;;;;;;2.60;1.50;;;23.80;30.40;;;;;;5032408;28;20910;-67
2022/02/10 23:14:53;;;;;;;2.77;1.40;;;23.70;30.50;;;;;;5032544;28;21336;-67
2022/02/10 23:17:21;;;;;;;2.63;1.60;;;23.70;30.40;;;;;;5032241;28;20403;-68
2022/02/10 23:19:49;;;;;;;3.70;1.83;;;23.80;30.40;;;;;;5033118;28;20395;-67
2022/02/10 23:22:16;;;;;;;2.55;1.58;;;23.80;30.40;;;;;;5032980;28;20395;-67
2022/02/10 23:24:44;;;;;;;2.58;1.52;;;23.80;30.60;;;;;;5032713;28;20871;-67
2022/02/10 23:27:18;;;;;;;2.88;1.67;;;23.80;30.70;;;;;;5032796;28;20419;-67
2022/02/10 23:29:46;;;;;;;2.65;1.65;;;23.80;30.70;;;;;;5031950;28;20883;-67
2022/02/10 23:32:14;;;;;;;2.75;1.80;;;23.80;30.70;;;;;;5031975;28;20756;-68
2022/02/10 23:34:46;;;;;;;3.35;1.60;;;23.80;30.70;;;;;;5032835;28;20379;-68
2022/02/10 23:37:14;;;;;;;2.65;1.67;;;23.70;30.60;;;;;;5031888;28;20406;-67
2022/02/10 23:39:45;;;;;;;3.70;1.73;;;23.70;30.70;;;;;;5031600;28;20455;-69
2022/02/10 23:42:26;;;;;;;2.10;1.40;;;23.70;30.60;;;;;;5031754;28;20411;-67
2022/02/10 23:45:03;;;;;;;2.42;1.50;;;23.70;30.50;;;;;;5030582;28;20407;-67
2022/02/10 23:47:33;;;;;;;2.50;1.50;;;23.70;30.70;;;;;;5032893;28;20422;-67
2022/02/10 23:50:00;;;;;;;2.97;1.50;;;23.70;30.60;;;;;;5031697;28;20441;-68
2022/02/10 23:52:32;;;;;;;3.05;1.80;;;23.70;30.60;;;;;;5032429;28;20402;-67
2022/02/10 23:55:08;;;;;;;2.08;1.40;;;23.70;30.50;;;;;;5015408;28;20457;-69
2022/02/10 23:58:05;;;;;;;2.47;1.60;;;23.60;30.40;;;;;;5031581;28;20434;-72
